Terminal Aerodrome Forecast
Issued by NWS Newport/Morehead City, NC

Home | Current Version | Previous Version | Text Only | Print | Product List | Glossary On
Versions: 1 2 3 4 5 6 7 8 9 10 11 12 13 14 15
000
FTUS42 KMHX 261727
TAFEWN
TAF
KEWN 261727Z 2618/2718 36015G25KT P6SM VCSH SCT025 BKN035
     FM262300 36015G25KT P6SM OVC025
     FM270600 34015G20KT P6SM BKN015
     FM271200 33015G20KT P6SM BKN020=

USA.gov is the U.S. government's official web portal to all federal, state and local government web resources and services.